createdAt,value
2018-12-21T00:00:54.173Z,10.80
2018-12-21T00:02:58.269Z,10.80
2018-12-21T00:05:02.309Z,10.80
2018-12-21T00:07:06.440Z,10.80
2018-12-21T00:09:10.473Z,10.80
2018-12-21T00:13:22.649Z,10.80
2018-12-21T00:15:27.830Z,10.80
2018-12-21T00:17:34.733Z,10.80
2018-12-21T00:19:38.057Z,10.80
2018-12-21T00:21:42.081Z,10.80
2018-12-21T00:23:46.154Z,10.80
2018-12-21T00:25:50.266Z,10.80
2018-12-21T00:27:54.295Z,10.80
2018-12-21T00:29:58.454Z,10.80
2018-12-21T00:32:07.920Z,10.80
2018-12-21T00:34:17.331Z,10.80
2018-12-21T00:36:26.665Z,10.80
2018-12-21T00:38:35.988Z,10.80
2018-12-21T00:40:45.600Z,10.80
2018-12-21T00:42:55.317Z,10.80
2018-12-21T00:45:08.865Z,10.80
2018-12-21T00:47:15.545Z,10.70
2018-12-21T00:49:19.815Z,10.70
2018-12-21T00:51:30.229Z,10.70
2018-12-21T00:53:30.016Z,10.70
2018-12-21T00:55:34.038Z,10.70
2018-12-21T00:57:38.040Z,10.70
2018-12-21T00:59:42.325Z,10.70
2018-12-21T01:01:46.509Z,10.70
2018-12-21T01:03:50.526Z,10.70
2018-12-21T01:05:54.941Z,10.70
2018-12-21T01:07:59.130Z,10.70
2018-12-21T01:10:03.405Z,10.70
2018-12-21T01:12:09.457Z,10.70
2018-12-21T01:14:13.542Z,10.70
2018-12-21T01:16:17.692Z,10.70
2018-12-21T01:18:23.045Z,10.70
2018-12-21T01:20:27.092Z,10.70
2018-12-21T01:22:31.228Z,10.70
2018-12-21T01:24:35.294Z,10.70
2018-12-21T01:26:39.318Z,10.70
2018-12-21T01:30:49.506Z,10.70
2018-12-21T01:32:53.741Z,10.70
2018-12-21T01:34:57.866Z,10.70
2018-12-21T01:37:01.902Z,10.70
2018-12-21T01:39:06.909Z,10.70
2018-12-21T01:41:11.338Z,10.70
2018-12-21T01:43:15.385Z,10.70
2018-12-21T01:45:19.416Z,10.70
2018-12-21T01:47:23.445Z,10.70
2018-12-21T01:49:27.497Z,10.70
2018-12-21T01:51:31.514Z,10.60
2018-12-21T01:53:35.689Z,10.70
2018-12-21T01:55:39.742Z,10.70
2018-12-21T01:57:44.356Z,10.70
2018-12-21T01:59:48.473Z,10.60
2018-12-21T02:01:53.322Z,10.70
2018-12-21T02:03:58.909Z,10.70
2018-12-21T02:06:03.830Z,10.70
2018-12-21T02:08:09.065Z,10.70
2018-12-21T02:10:13.279Z,10.70
2018-12-21T02:12:17.397Z,10.70
2018-12-21T02:14:21.620Z,10.70
2018-12-21T02:16:25.678Z,10.70
2018-12-21T02:18:29.783Z,10.70
2018-12-21T02:20:33.917Z,10.70
2018-12-21T02:22:38.020Z,10.70
2018-12-21T02:24:42.061Z,10.70
2018-12-21T02:26:46.223Z,10.70
2018-12-21T02:28:50.338Z,10.70
2018-12-21T02:30:54.374Z,10.70
2018-12-21T02:32:58.546Z,10.70
2018-12-21T02:35:02.609Z,10.70
2018-12-21T02:37:06.745Z,10.70
2018-12-21T02:39:10.841Z,10.70
2018-12-21T02:41:14.957Z,10.70
2018-12-21T02:43:19.002Z,10.70
2018-12-21T02:45:23.070Z,10.70
2018-12-21T02:47:27.305Z,10.70
2018-12-21T02:49:31.419Z,10.70
2018-12-21T02:51:35.569Z,10.70
2018-12-21T02:53:39.606Z,10.70
2018-12-21T02:55:43.653Z,10.70
2018-12-21T02:57:47.729Z,10.70
2018-12-21T02:59:51.941Z,10.70
2018-12-21T03:01:56.654Z,10.70
2018-12-21T03:04:00.675Z,10.70
2018-12-21T03:06:04.912Z,10.70
2018-12-21T03:08:08.949Z,10.70
2018-12-21T03:10:12.979Z,10.70
2018-12-21T03:12:16.977Z,10.70
2018-12-21T03:14:21.004Z,10.70
2018-12-21T03:16:25.013Z,10.70
2018-12-21T03:18:29.205Z,10.70
2018-12-21T03:20:33.240Z,10.70
2018-12-21T03:22:37.365Z,10.60
2018-12-21T03:24:41.428Z,10.60
2018-12-21T03:26:45.485Z,10.70
2018-12-21T03:28:49.515Z,10.60
2018-12-21T03:30:53.794Z,10.60
2018-12-21T03:32:57.833Z,10.60
2018-12-21T03:35:01.988Z,10.60
2018-12-21T03:37:06.059Z,10.60
2018-12-21T03:39:10.252Z,10.60
2018-12-21T03:41:14.314Z,10.60
2018-12-21T03:43:18.938Z,10.60
2018-12-21T03:45:22.956Z,10.60
2018-12-21T03:47:27.053Z,10.60
2018-12-21T03:49:31.059Z,10.60
2018-12-21T03:51:35.079Z,10.60
2018-12-21T03:53:39.225Z,10.60
2018-12-21T03:55:43.285Z,10.60
2018-12-21T03:57:47.405Z,10.60
2018-12-21T03:59:51.458Z,10.60
2018-12-21T04:01:55.587Z,10.60
2018-12-21T04:03:59.608Z,10.60
2018-12-21T04:06:03.970Z,10.60
2018-12-21T04:08:07.998Z,10.60
2018-12-21T04:10:12.066Z,10.60
2018-12-21T04:12:16.228Z,10.60
2018-12-21T04:14:20.241Z,10.60
2018-12-21T04:16:24.257Z,10.60
2018-12-21T04:18:28.399Z,10.60
2018-12-21T04:20:32.467Z,10.60
2018-12-21T04:22:36.677Z,10.60
2018-12-21T04:24:40.709Z,10.60
2018-12-21T04:26:44.715Z,10.60
2018-12-21T04:28:48.840Z,10.60
2018-12-21T04:30:52.882Z,10.60
2018-12-21T04:32:56.918Z,10.60
2018-12-21T04:35:01.024Z,10.60
2018-12-21T04:37:05.181Z,10.60
2018-12-21T04:39:09.208Z,10.70
2018-12-21T04:41:13.288Z,10.70
2018-12-21T04:43:17.344Z,10.70
2018-12-21T04:45:21.409Z,10.70
2018-12-21T04:47:25.463Z,10.70
2018-12-21T04:49:29.490Z,10.70
2018-12-21T04:51:33.536Z,10.70
2018-12-21T04:53:37.865Z,10.70
2018-12-21T04:55:41.942Z,10.70
2018-12-21T04:57:45.961Z,10.70
2018-12-21T04:59:50.282Z,10.70
2018-12-21T05:01:54.628Z,10.70
2018-12-21T05:03:58.662Z,10.70
2018-12-21T05:06:02.717Z,10.70
2018-12-21T05:08:06.755Z,10.70
2018-12-21T05:10:10.946Z,10.80
2018-12-21T05:12:15.145Z,10.80
2018-12-21T05:14:19.254Z,10.70
2018-12-21T05:16:23.287Z,10.70
2018-12-21T05:18:27.479Z,10.80
2018-12-21T05:20:31.748Z,10.80
2018-12-21T05:22:35.923Z,10.80
2018-12-21T05:24:40.057Z,10.80
2018-12-21T05:26:44.190Z,10.80
2018-12-21T05:28:48.201Z,10.80
2018-12-21T05:30:52.248Z,10.80
2018-12-21T05:32:56.260Z,10.80
2018-12-21T05:35:00.268Z,10.80
2018-12-21T05:37:04.385Z,10.80
2018-12-21T05:39:08.421Z,10.80
2018-12-21T05:41:12.450Z,10.80
2018-12-21T05:43:16.600Z,10.80
2018-12-21T05:45:20.629Z,10.80
2018-12-21T05:47:24.659Z,10.80
2018-12-21T05:49:28.681Z,10.80
2018-12-21T05:51:33.329Z,10.80
2018-12-21T05:53:37.361Z,10.80
2018-12-21T05:55:41.397Z,10.80
2018-12-21T05:57:45.429Z,10.90
2018-12-21T05:59:49.521Z,10.90
2018-12-21T06:01:53.669Z,10.90
2018-12-21T06:03:57.701Z,10.90
2018-12-21T06:06:01.927Z,10.90
2018-12-21T06:08:06.017Z,10.90
2018-12-21T06:10:10.193Z,10.90
2018-12-21T06:12:14.309Z,10.90
2018-12-21T06:14:18.425Z,10.90
2018-12-21T06:16:22.438Z,10.90
2018-12-21T06:18:26.613Z,10.90
2018-12-21T06:20:31.244Z,10.90
2018-12-21T06:22:35.285Z,11.00
2018-12-21T06:24:39.332Z,11.00
2018-12-21T06:26:43.397Z,11.00
2018-12-21T06:28:47.418Z,11.00
2018-12-21T06:30:51.617Z,11.00
2018-12-21T06:32:55.639Z,11.00
2018-12-21T06:34:59.657Z,11.00
2018-12-21T06:37:03.955Z,11.00
2018-12-21T06:39:08.671Z,11.00
2018-12-21T06:41:12.746Z,11.00
2018-12-21T06:43:16.846Z,11.00
2018-12-21T06:45:20.860Z,11.00
2018-12-21T06:47:24.972Z,11.00
2018-12-21T06:49:29.082Z,11.00
2018-12-21T06:51:33.101Z,11.00
2018-12-21T06:53:37.213Z,11.00
2018-12-21T06:55:41.342Z,11.00
2018-12-21T06:57:45.358Z,11.10
2018-12-21T06:59:49.407Z,11.10
2018-12-21T07:01:53.521Z,11.10
2018-12-21T07:03:57.624Z,11.10
2018-12-21T07:06:01.691Z,11.10
2018-12-21T07:08:05.895Z,11.10
2018-12-21T07:10:11.894Z,11.10
2018-12-21T07:12:15.951Z,11.10
2018-12-21T07:14:19.965Z,11.10
2018-12-21T07:16:23.974Z,11.10
2018-12-21T07:18:27.992Z,11.10
2018-12-21T07:20:32.105Z,11.10
2018-12-21T07:22:36.147Z,11.10
2018-12-21T07:24:40.241Z,11.10
2018-12-21T07:26:44.284Z,11.10
2018-12-21T07:28:48.485Z,11.10
2018-12-21T07:30:52.798Z,11.20
2018-12-21T07:32:56.841Z,11.20
2018-12-21T07:35:00.879Z,11.20
2018-12-21T07:37:04.971Z,11.20
2018-12-21T07:39:09.552Z,11.20
2018-12-21T07:41:13.671Z,11.20
2018-12-21T07:43:17.781Z,11.20
2018-12-21T07:45:21.882Z,11.30
2018-12-21T07:47:25.965Z,11.30
2018-12-21T07:49:30.077Z,11.30
2018-12-21T07:51:34.097Z,11.30
2018-12-21T07:53:38.131Z,11.30
2018-12-21T07:55:42.156Z,11.30
2018-12-21T07:57:46.218Z,11.30
2018-12-21T07:59:50.277Z,11.40
2018-12-21T08:01:54.310Z,11.40
2018-12-21T08:03:58.336Z,11.40
2018-12-21T08:06:02.383Z,11.40
2018-12-21T08:08:06.517Z,11.40
2018-12-21T08:10:17.233Z,11.40
2018-12-21T08:12:21.350Z,11.40
2018-12-21T08:14:25.360Z,11.50
2018-12-21T08:16:29.633Z,11.50
2018-12-21T08:18:33.721Z,11.50
2018-12-21T08:20:38.452Z,11.50
2018-12-21T08:22:42.516Z,11.50
2018-12-21T08:24:47.412Z,11.50
2018-12-21T08:26:51.585Z,11.50
2018-12-21T08:28:55.628Z,11.50
2018-12-21T08:30:59.673Z,11.50
2018-12-21T08:33:03.710Z,11.50
2018-12-21T08:35:07.789Z,11.60
2018-12-21T08:37:11.913Z,11.60
2018-12-21T08:39:15.951Z,11.60
2018-12-21T08:41:19.975Z,11.60
2018-12-21T08:43:24.408Z,11.60
2018-12-21T08:45:28.458Z,11.60
2018-12-21T08:47:32.490Z,11.60
2018-12-21T08:49:36.546Z,11.60
2018-12-21T08:51:40.572Z,11.60
2018-12-21T08:53:52.391Z,11.70
2018-12-21T08:55:50.699Z,11.70
2018-12-21T08:57:54.752Z,11.70
2018-12-21T08:59:58.823Z,11.70
2018-12-21T09:02:03.167Z,11.70
2018-12-21T09:04:07.346Z,11.70
2018-12-21T09:06:18.441Z,11.70
2018-12-21T09:08:17.493Z,11.70
2018-12-21T09:10:21.674Z,11.80
2018-12-21T09:12:25.693Z,11.80
2018-12-21T09:14:29.731Z,11.80
2018-12-21T09:16:33.743Z,11.80
2018-12-21T09:18:38.848Z,11.80
2018-12-21T09:20:42.868Z,11.80
2018-12-21T09:22:46.872Z,11.80
2018-12-21T09:24:50.867Z,11.80
2018-12-21T09:26:55.017Z,11.90
2018-12-21T09:28:59.120Z,11.90
2018-12-21T09:31:03.164Z,11.90
2018-12-21T09:33:07.384Z,11.90
2018-12-21T09:35:11.483Z,11.90
2018-12-21T09:37:15.587Z,11.90
2018-12-21T09:39:19.786Z,11.90
2018-12-21T09:41:23.798Z,11.90
2018-12-21T09:43:27.834Z,11.90
2018-12-21T09:45:31.887Z,12.00
2018-12-21T09:47:35.962Z,12.00
2018-12-21T09:49:39.997Z,12.00
2018-12-21T09:51:45.420Z,12.00
2018-12-21T09:53:49.959Z,12.00
2018-12-21T09:55:54.264Z,12.00
2018-12-21T09:57:58.283Z,12.00
2018-12-21T10:00:02.512Z,12.00
2018-12-21T10:02:06.527Z,12.10
2018-12-21T10:04:10.551Z,12.10
2018-12-21T10:06:14.788Z,12.10
2018-12-21T10:08:19.688Z,12.10
2018-12-21T10:10:23.708Z,12.10
2018-12-21T10:12:27.809Z,12.10
2018-12-21T10:14:31.845Z,12.10
2018-12-21T10:16:35.881Z,12.20
2018-12-21T10:18:39.938Z,12.20
2018-12-21T10:20:43.980Z,12.20
2018-12-21T10:22:48.044Z,12.20
2018-12-21T10:24:54.179Z,12.20
2018-12-21T10:26:58.537Z,12.20
2018-12-21T10:29:02.556Z,12.20
2018-12-21T10:31:06.578Z,12.30
2018-12-21T10:33:10.713Z,12.30
2018-12-21T10:35:14.764Z,12.30
2018-12-21T10:37:18.800Z,12.30
2018-12-21T10:39:23.119Z,12.30
2018-12-21T10:41:27.144Z,12.40
2018-12-21T10:43:31.260Z,12.50
2018-12-21T10:45:41.521Z,12.40
2018-12-21T10:47:41.421Z,12.40
2018-12-21T10:49:45.483Z,12.50
2018-12-21T10:51:49.612Z,12.50
2018-12-21T10:53:53.612Z,12.50
2018-12-21T10:55:57.734Z,12.50
2018-12-21T10:58:01.752Z,12.50
2018-12-21T11:00:09.176Z,12.60
2018-12-21T11:02:13.198Z,12.60
2018-12-21T11:04:17.268Z,12.60
2018-12-21T11:06:21.274Z,12.60
2018-12-21T11:08:25.353Z,12.70
2018-12-21T11:10:29.475Z,12.70
2018-12-21T11:12:33.572Z,12.70
2018-12-21T11:14:37.704Z,12.70
2018-12-21T11:16:41.753Z,12.80
2018-12-21T11:18:45.806Z,12.80
2018-12-21T11:20:49.939Z,12.80
2018-12-21T11:22:53.974Z,12.80
2018-12-21T11:24:58.012Z,12.80
2018-12-21T11:27:02.090Z,12.90
2018-12-21T11:29:06.192Z,12.90
2018-12-21T11:31:10.217Z,12.90
2018-12-21T11:33:14.457Z,13.00
2018-12-21T11:35:18.535Z,13.00
2018-12-21T11:37:22.718Z,13.00
2018-12-21T11:39:26.749Z,13.00
2018-12-21T11:41:30.801Z,13.00
2018-12-21T11:43:35.327Z,13.10
2018-12-21T11:45:39.517Z,13.10
2018-12-21T11:47:43.524Z,13.10
2018-12-21T11:49:47.633Z,13.20
2018-12-21T11:51:57.269Z,13.20
2018-12-21T11:54:01.415Z,13.20
2018-12-21T11:56:05.552Z,13.30
2018-12-21T11:58:09.686Z,13.30
2018-12-21T12:00:13.799Z,13.30
2018-12-21T12:02:19.693Z,13.40
2018-12-21T12:04:23.978Z,13.40
2018-12-21T12:06:28.002Z,13.40
2018-12-21T12:08:32.085Z,13.50
2018-12-21T12:10:36.148Z,13.50
2018-12-21T12:12:40.192Z,13.50
2018-12-21T12:14:44.298Z,13.60
2018-12-21T12:16:48.471Z,13.60
2018-12-21T12:18:52.604Z,13.70
2018-12-21T12:20:56.640Z,13.70
2018-12-21T12:23:00.654Z,13.80
2018-12-21T12:25:05.655Z,13.80
2018-12-21T12:27:10.396Z,13.90
2018-12-21T12:29:15.198Z,13.90
2018-12-21T12:31:19.309Z,14.00
2018-12-21T12:33:23.485Z,14.00
2018-12-21T12:35:27.507Z,14.10
2018-12-21T12:37:31.563Z,14.10
2018-12-21T12:39:35.602Z,14.20
2018-12-21T12:41:39.619Z,14.30
2018-12-21T12:43:43.666Z,14.30
2018-12-21T12:45:50.742Z,14.40
2018-12-21T12:47:54.789Z,14.40
2018-12-21T12:49:58.909Z,14.40
2018-12-21T12:52:03.070Z,14.50
2018-12-21T12:54:07.261Z,14.50
2018-12-21T12:56:11.329Z,14.60
2018-12-21T12:58:15.435Z,14.70
2018-12-21T13:00:19.891Z,14.70
2018-12-21T13:02:24.207Z,14.70
2018-12-21T13:04:28.253Z,14.80
2018-12-21T13:06:32.287Z,14.80
2018-12-21T13:08:36.416Z,14.80
2018-12-21T13:10:40.426Z,14.90
2018-12-21T13:12:44.521Z,14.90
2018-12-21T13:14:48.543Z,14.90
2018-12-21T13:16:52.552Z,15.00
2018-12-21T13:18:56.636Z,15.00
2018-12-21T13:21:00.737Z,15.00
2018-12-21T13:23:05.013Z,15.00
2018-12-21T13:25:11.426Z,15.10
2018-12-21T13:27:15.864Z,15.10
2018-12-21T13:29:19.964Z,15.10
2018-12-21T13:31:24.140Z,15.10
2018-12-21T13:33:28.259Z,15.20
2018-12-21T13:35:32.264Z,15.20
2018-12-21T13:37:36.323Z,15.20
2018-12-21T13:39:40.409Z,15.20
2018-12-21T13:41:44.472Z,15.20
2018-12-21T13:43:49.093Z,15.20
2018-12-21T13:45:53.164Z,15.20
2018-12-21T13:47:57.224Z,15.30
2018-12-21T13:50:01.308Z,15.30
2018-12-21T13:52:05.401Z,15.30
2018-12-21T13:54:09.606Z,15.30
2018-12-21T13:56:13.627Z,15.30
2018-12-21T13:58:18.460Z,15.30
2018-12-21T14:00:22.505Z,15.40
2018-12-21T14:02:26.658Z,15.40
2018-12-21T14:04:31.376Z,15.40
2018-12-21T14:06:35.465Z,15.40
2018-12-21T14:08:39.545Z,15.40
2018-12-21T14:10:43.637Z,15.40
2018-12-21T14:12:47.836Z,15.40
2018-12-21T14:14:51.890Z,15.50
2018-12-21T14:16:56.093Z,15.50
2018-12-21T14:19:01.861Z,15.50
2018-12-21T14:21:05.914Z,15.50
2018-12-21T14:23:09.959Z,15.50
2018-12-21T14:25:13.997Z,15.50
2018-12-21T14:27:18.034Z,15.50
2018-12-21T14:29:22.186Z,15.50
2018-12-21T14:31:26.237Z,15.50
2018-12-21T14:33:30.457Z,15.50
2018-12-21T14:35:34.511Z,15.50
2018-12-21T14:37:38.549Z,15.50
2018-12-21T14:39:42.679Z,15.50
2018-12-21T14:41:46.705Z,15.50
2018-12-21T14:43:50.858Z,15.50
2018-12-21T14:45:55.047Z,15.50
2018-12-21T14:47:59.220Z,15.50
2018-12-21T14:50:03.719Z,15.50
2018-12-21T14:52:07.846Z,15.50
2018-12-21T14:54:11.963Z,15.40
2018-12-21T14:56:16.173Z,15.40
2018-12-21T14:58:20.389Z,15.40
2018-12-21T15:00:24.457Z,15.40
2018-12-21T15:02:28.485Z,15.40
2018-12-21T15:04:32.602Z,15.40
2018-12-21T15:06:36.615Z,15.40
2018-12-21T15:08:40.661Z,15.30
2018-12-21T15:10:44.723Z,15.30
2018-12-21T15:12:48.764Z,15.30
2018-12-21T15:14:52.821Z,15.30
2018-12-21T15:16:56.840Z,15.20
2018-12-21T15:19:00.874Z,15.20
2018-12-21T15:21:05.069Z,15.20
2018-12-21T15:23:09.169Z,15.20
2018-12-21T15:25:13.372Z,15.20
2018-12-21T15:27:17.402Z,15.20
2018-12-21T15:29:21.409Z,15.20
2018-12-21T15:31:25.456Z,15.10
2018-12-21T15:33:29.484Z,15.10
2018-12-21T15:35:35.141Z,15.10
2018-12-21T15:37:41.178Z,15.10
2018-12-21T15:39:45.286Z,15.10
2018-12-21T15:41:49.513Z,15.00
2018-12-21T15:43:53.755Z,15.00
2018-12-21T15:45:57.785Z,15.00
2018-12-21T15:48:01.881Z,15.00
2018-12-21T15:50:09.550Z,15.00
2018-12-21T15:52:13.599Z,15.00
2018-12-21T15:54:17.640Z,15.00
2018-12-21T15:56:21.681Z,15.00
2018-12-21T15:58:25.741Z,14.90
2018-12-21T16:00:30.052Z,14.90
2018-12-21T16:02:34.072Z,14.90
2018-12-21T16:04:38.240Z,14.90
2018-12-21T16:06:42.318Z,14.90
2018-12-21T16:08:46.409Z,14.90
2018-12-21T16:10:50.529Z,14.90
2018-12-21T16:12:54.699Z,14.90
2018-12-21T16:14:58.826Z,14.90
2018-12-21T16:17:02.892Z,14.90
2018-12-21T16:19:07.078Z,14.90
2018-12-21T16:21:11.137Z,14.90
2018-12-21T16:23:15.165Z,14.90
2018-12-21T16:25:19.210Z,14.90
2018-12-21T16:27:23.317Z,14.90
2018-12-21T16:29:27.477Z,14.90
2018-12-21T16:31:31.641Z,14.90
2018-12-21T16:33:35.862Z,14.90
2018-12-21T16:35:40.006Z,14.80
2018-12-21T16:37:44.048Z,14.80
2018-12-21T16:39:48.121Z,14.80
2018-12-21T16:41:52.196Z,14.80
2018-12-21T16:43:56.361Z,14.80
2018-12-21T16:46:00.453Z,14.80
2018-12-21T16:48:04.557Z,14.80
2018-12-21T16:50:12.589Z,14.80
2018-12-21T16:52:16.666Z,14.80
2018-12-21T16:54:20.855Z,14.80
2018-12-21T16:56:25.003Z,14.80
2018-12-21T16:58:29.004Z,14.80
2018-12-21T17:00:33.279Z,14.80
2018-12-21T17:02:37.405Z,14.70
2018-12-21T17:04:41.450Z,14.70
2018-12-21T17:06:45.509Z,14.70
2018-12-21T17:08:49.644Z,14.70
2018-12-21T17:10:53.711Z,14.70
2018-12-21T17:12:57.781Z,14.70
2018-12-21T17:15:01.818Z,14.70
2018-12-21T17:17:06.063Z,14.70
2018-12-21T17:19:18.743Z,14.70
2018-12-21T17:21:22.780Z,14.70
2018-12-21T17:23:26.845Z,14.70
2018-12-21T17:25:32.123Z,14.60
2018-12-21T17:27:36.189Z,14.60
2018-12-21T17:29:40.453Z,14.70
2018-12-21T17:31:44.597Z,14.60
2018-12-21T17:33:48.663Z,14.60
2018-12-21T17:35:52.717Z,14.60
2018-12-21T17:37:56.789Z,14.50
2018-12-21T17:40:00.953Z,14.50
2018-12-21T17:42:05.128Z,14.50
2018-12-21T17:44:09.360Z,14.50
2018-12-21T17:46:13.439Z,14.50
2018-12-21T17:48:17.535Z,14.50
2018-12-21T17:50:21.681Z,14.50
2018-12-21T17:52:25.881Z,14.40
2018-12-21T17:54:29.978Z,14.50
2018-12-21T17:56:34.165Z,14.40
2018-12-21T17:58:38.259Z,14.40
2018-12-21T18:00:42.350Z,14.40
2018-12-21T18:03:02.194Z,14.40
2018-12-21T18:05:06.682Z,14.40
2018-12-21T18:07:10.790Z,14.40
2018-12-21T18:09:14.890Z,14.40
2018-12-21T18:11:18.970Z,14.40
2018-12-21T18:13:23.471Z,14.40
2018-12-21T18:15:27.711Z,14.40
2018-12-21T18:17:31.805Z,14.40
2018-12-21T18:19:35.825Z,14.40
2018-12-21T18:21:51.429Z,14.30
2018-12-21T18:23:55.507Z,14.30
2018-12-21T18:25:59.642Z,14.30
2018-12-21T18:28:10.821Z,14.30
2018-12-21T18:30:23.316Z,14.30
2018-12-21T18:32:33.294Z,14.30
2018-12-21T18:34:38.677Z,14.30
2018-12-21T18:36:42.735Z,14.30
2018-12-21T18:38:46.856Z,14.30
2018-12-21T18:40:51.023Z,14.30
2018-12-21T18:42:55.227Z,14.30
2018-12-21T18:44:59.269Z,14.30
2018-12-21T18:47:03.484Z,14.20
2018-12-21T18:49:07.604Z,14.20
2018-12-21T18:51:11.842Z,14.20
2018-12-21T18:53:15.942Z,14.20
2018-12-21T18:55:20.157Z,14.10
2018-12-21T18:57:24.237Z,14.20
2018-12-21T18:59:28.337Z,14.20
2018-12-21T19:01:32.369Z,14.10
2018-12-21T19:03:36.420Z,14.10
2018-12-21T19:05:40.536Z,14.10
2018-12-21T19:07:44.633Z,14.10
2018-12-21T19:09:48.686Z,14.10
2018-12-21T19:11:52.773Z,14.10
2018-12-21T19:13:56.850Z,14.10
2018-12-21T19:16:00.904Z,14.00
2018-12-21T19:18:05.066Z,14.00
2018-12-21T19:20:12.313Z,14.00
2018-12-21T19:22:16.468Z,14.00
2018-12-21T19:24:20.512Z,14.00
2018-12-21T19:26:24.646Z,14.00
2018-12-21T19:28:28.758Z,14.00
2018-12-21T19:30:32.947Z,13.90
2018-12-21T19:32:37.009Z,13.90
2018-12-21T19:34:41.096Z,13.90
2018-12-21T19:36:45.145Z,13.90
2018-12-21T19:38:49.299Z,13.90
2018-12-21T19:40:53.356Z,13.90
2018-12-21T19:42:57.442Z,13.90
2018-12-21T19:45:01.615Z,13.80
2018-12-21T19:47:05.638Z,13.80
2018-12-21T19:49:09.742Z,13.80
2018-12-21T19:51:13.798Z,13.80
2018-12-21T19:53:17.835Z,13.80
2018-12-21T19:55:38.874Z,13.90
2018-12-21T19:57:42.906Z,13.90
2018-12-21T19:59:47.051Z,13.90
2018-12-21T20:01:51.210Z,13.90
2018-12-21T20:03:55.337Z,13.90
2018-12-21T20:05:59.380Z,13.90
2018-12-21T20:08:03.565Z,13.90
2018-12-21T20:10:08.664Z,13.90
2018-12-21T20:12:12.763Z,13.90
2018-12-21T20:14:16.875Z,13.90
2018-12-21T20:16:21.044Z,13.90
2018-12-21T20:18:25.126Z,13.90
2018-12-21T20:20:29.299Z,13.90
2018-12-21T20:22:33.333Z,13.90
2018-12-21T20:24:39.948Z,13.90
2018-12-21T20:26:48.704Z,13.90
2018-12-21T20:28:52.762Z,13.90
2018-12-21T20:30:56.811Z,13.90
2018-12-21T20:33:00.883Z,13.90
2018-12-21T20:35:06.074Z,13.90
2018-12-21T20:37:10.518Z,13.90
2018-12-21T20:39:21.341Z,13.90
2018-12-21T20:41:25.428Z,13.90
2018-12-21T20:43:29.468Z,13.90
2018-12-21T20:45:33.534Z,13.90
2018-12-21T20:47:37.647Z,13.90
2018-12-21T20:49:42.483Z,13.90
2018-12-21T20:51:47.339Z,13.90
2018-12-21T20:53:51.413Z,13.90
2018-12-21T20:55:56.995Z,13.90
2018-12-21T20:58:12.926Z,13.90
2018-12-21T21:00:17.665Z,13.90
2018-12-21T21:02:21.726Z,13.90
2018-12-21T21:04:25.757Z,13.90
2018-12-21T21:06:29.822Z,13.90
2018-12-21T21:08:33.859Z,13.90
2018-12-21T21:10:37.997Z,13.90
2018-12-21T21:12:42.325Z,13.90
2018-12-21T21:14:46.411Z,13.90
2018-12-21T21:16:50.465Z,13.90
2018-12-21T21:18:54.603Z,13.90
2018-12-21T21:20:58.742Z,13.90
2018-12-21T21:23:02.827Z,13.90
2018-12-21T21:25:07.316Z,14.00
2018-12-21T21:27:11.416Z,14.00
2018-12-21T21:29:15.573Z,14.00
2018-12-21T21:31:19.706Z,14.00
2018-12-21T21:33:23.780Z,14.00
2018-12-21T21:35:27.820Z,14.00
2018-12-21T21:37:31.889Z,14.00
2018-12-21T21:39:35.996Z,13.90
2018-12-21T21:41:40.039Z,13.90
2018-12-21T21:43:44.073Z,14.00
2018-12-21T21:45:48.169Z,14.00
2018-12-21T21:47:52.294Z,14.00
2018-12-21T21:49:56.365Z,14.00
2018-12-21T21:52:00.877Z,14.00
2018-12-21T21:54:05.231Z,13.90
2018-12-21T21:56:09.367Z,13.90
2018-12-21T21:58:14.568Z,13.90
2018-12-21T22:00:19.030Z,13.90
2018-12-21T22:02:23.281Z,13.90
2018-12-21T22:04:27.381Z,13.90
2018-12-21T22:06:31.536Z,13.90
2018-12-21T22:08:35.584Z,13.90
2018-12-21T22:10:40.084Z,13.90
2018-12-21T22:12:44.148Z,13.90
2018-12-21T22:14:48.825Z,13.90
2018-12-21T22:16:52.857Z,13.90
2018-12-21T22:18:56.895Z,13.90
2018-12-21T22:21:01.115Z,13.90
2018-12-21T22:23:05.220Z,13.90
2018-12-21T22:25:09.349Z,13.90
2018-12-21T22:27:13.384Z,13.90
2018-12-21T22:29:17.505Z,13.90
2018-12-21T22:31:21.520Z,13.90
2018-12-21T22:33:26.166Z,13.90
2018-12-21T22:35:30.534Z,13.90
2018-12-21T22:37:34.544Z,13.90
2018-12-21T22:39:38.642Z,13.90
2018-12-21T22:41:42.969Z,13.90
2018-12-21T22:43:47.001Z,13.90
2018-12-21T22:45:51.126Z,13.90
2018-12-21T22:47:55.167Z,13.90
2018-12-21T22:49:59.287Z,13.90
2018-12-21T22:52:03.531Z,13.90
2018-12-21T22:54:07.571Z,13.90
2018-12-21T22:56:11.820Z,13.90
2018-12-21T22:58:15.933Z,13.90
2018-12-21T23:00:25.293Z,13.80
2018-12-21T23:02:29.941Z,13.90
2018-12-21T23:04:33.965Z,13.90
2018-12-21T23:06:38.279Z,13.80
2018-12-21T23:08:42.335Z,13.80
2018-12-21T23:10:46.384Z,13.80
2018-12-21T23:12:50.492Z,13.80
2018-12-21T23:14:54.549Z,13.80
2018-12-21T23:16:58.590Z,13.80
2018-12-21T23:19:02.667Z,13.80
2018-12-21T23:21:06.705Z,13.80
2018-12-21T23:23:10.777Z,13.80
2018-12-21T23:25:14.973Z,13.80
2018-12-21T23:27:19.192Z,13.80
2018-12-21T23:29:23.391Z,13.80
2018-12-21T23:31:27.505Z,13.80
2018-12-21T23:33:31.521Z,13.80
2018-12-21T23:35:35.832Z,13.80
2018-12-21T23:37:40.026Z,13.80
2018-12-21T23:39:44.055Z,13.80
2018-12-21T23:41:48.280Z,13.80
2018-12-21T23:43:52.429Z,13.80
2018-12-21T23:45:56.495Z,13.80
2018-12-21T23:48:00.592Z,13.80
2018-12-21T23:50:06.320Z,13.80
2018-12-21T23:52:10.357Z,13.80
2018-12-21T23:54:14.487Z,13.80
2018-12-21T23:56:18.542Z,13.80
2018-12-21T23:58:22.574Z,13.80
